Gunn City, Missouri
Current Conditions -  °F | °C
As of 2:35 PM on Friday 28 Nov 2014 (Local Time) from KRCM Reporting Station
Clear Clear  
Wind Chill: 59°   Ceiling: Unl
Heat Index: 59°   Visibility: 10mi
Dew Point: 32°   Wind: 14mph
Humidity: 36%   Direction: 210°SSW
Pressure: 29.84"   Gusts: 20mph
Location:  38.5641°N, 94.1793°W
Report Text: KRCM 282035Z AUTO 21012G17KT 10SM CLR 15/00 A2984 RMK AO2
Loading
Personal Weather Stations






























Interactive Weather Map New forecast layout! Learn more

10-Day Weather Forecast

Advertisements
Track Severe Weather on mobile